createdAt,value
2017-01-31T00:00:25.843Z,928.38
2017-01-31T00:01:40.203Z,928.39
2017-01-31T00:02:54.564Z,928.38
2017-01-31T00:04:08.964Z,928.38
2017-01-31T00:05:23.303Z,928.38
2017-01-31T00:06:37.642Z,928.38
2017-01-31T00:07:52.046Z,928.41
2017-01-31T00:09:06.409Z,928.46
2017-01-31T00:17:47.161Z,928.43
2017-01-31T00:19:01.547Z,928.47
2017-01-31T00:20:15.910Z,928.43
2017-01-31T00:21:30.278Z,928.49
2017-01-31T00:22:44.678Z,928.5
2017-01-31T00:23:59.052Z,928.49
2017-01-31T00:25:13.403Z,928.51
2017-01-31T00:26:27.746Z,928.52
2017-01-31T00:27:42.106Z,928.54
2017-01-31T00:28:56.520Z,928.54
2017-01-31T00:30:10.913Z,928.52
2017-01-31T00:31:25.299Z,928.52
2017-01-31T00:32:39.698Z,928.56
2017-01-31T00:33:54.130Z,928.55
2017-01-31T00:35:08.441Z,928.57
2017-01-31T00:36:22.793Z,928.57
2017-01-31T00:37:37.131Z,928.56
2017-01-31T00:38:51.491Z,928.57
2017-01-31T00:40:05.843Z,928.61
2017-01-31T00:41:19.789Z,928.63
2017-01-31T00:42:34.157Z,928.66
2017-01-31T00:43:48.550Z,928.69
2017-01-31T00:45:02.912Z,928.75
2017-01-31T00:46:16.656Z,928.7
2017-01-31T00:47:31.029Z,928.69
2017-01-31T00:48:45.443Z,928.72
2017-01-31T00:49:59.841Z,928.7
2017-01-31T00:51:12.947Z,928.72
2017-01-31T00:52:27.348Z,928.65
2017-01-31T00:53:41.727Z,928.67
2017-01-31T00:54:56.090Z,928.67
2017-01-31T00:56:10.479Z,928.67
2017-01-31T00:57:24.882Z,928.69
2017-01-31T00:58:39.262Z,928.65
2017-01-31T00:59:53.647Z,928.72
2017-01-31T01:01:07.410Z,928.68
2017-01-31T01:02:21.157Z,928.71
2017-01-31T01:03:35.570Z,928.68
2017-01-31T01:04:49.920Z,928.66
2017-01-31T01:06:04.278Z,928.69
2017-01-31T01:07:18.672Z,928.73
2017-01-31T01:08:33.021Z,928.69
2017-01-31T01:09:47.378Z,928.71
2017-01-31T01:11:01.752Z,928.65
2017-01-31T01:12:16.125Z,928.62
2017-01-31T01:13:29.878Z,928.67
2017-01-31T01:14:43.616Z,928.71
2017-01-31T01:15:57.966Z,928.71
2017-01-31T01:17:12.341Z,928.74
2017-01-31T01:18:26.705Z,928.7
2017-01-31T01:19:41.054Z,928.68
2017-01-31T01:20:55.423Z,928.62
2017-01-31T01:22:09.799Z,928.61
2017-01-31T01:23:24.188Z,928.61
2017-01-31T01:24:38.558Z,928.61
2017-01-31T01:25:52.912Z,928.61
2017-01-31T01:27:06.622Z,928.59
2017-01-31T01:28:20.408Z,928.61
2017-01-31T01:29:34.568Z,928.59
2017-01-31T01:30:48.967Z,928.54
2017-01-31T01:32:03.319Z,928.56
2017-01-31T01:33:17.713Z,928.48
2017-01-31T01:34:32.104Z,928.53
2017-01-31T01:35:46.492Z,928.48
2017-01-31T01:37:00.865Z,928.5
2017-01-31T01:38:15.224Z,928.52
2017-01-31T01:39:29.602Z,928.51
2017-01-31T01:40:43.950Z,928.51
2017-01-31T01:41:58.295Z,928.48
2017-01-31T01:43:12.634Z,928.47
2017-01-31T01:44:27.002Z,928.42
2017-01-31T01:45:40.718Z,928.43
2017-01-31T01:46:56.112Z,928.46
2017-01-31T01:48:10.499Z,928.4
2017-01-31T01:49:24.870Z,928.36
2017-01-31T01:50:39.254Z,928.4
2017-01-31T01:51:53.624Z,928.42
2017-01-31T01:53:07.987Z,928.4
2017-01-31T01:54:22.407Z,928.41
2017-01-31T01:55:36.775Z,928.39
2017-01-31T01:56:51.178Z,928.43
2017-01-31T01:58:05.547Z,928.44
2017-01-31T01:59:19.918Z,928.43
2017-01-31T02:00:34.312Z,928.43
2017-01-31T02:01:48.705Z,928.49
2017-01-31T02:03:03.073Z,928.47
2017-01-31T02:04:17.518Z,928.44
2017-01-31T02:05:31.891Z,928.48
2017-01-31T02:06:46.261Z,928.49
2017-01-31T02:08:00.611Z,928.55
2017-01-31T02:09:14.351Z,928.56
2017-01-31T02:10:28.723Z,928.58
2017-01-31T02:11:43.142Z,928.57
2017-01-31T02:12:57.510Z,928.57
2017-01-31T02:14:11.834Z,928.56
2017-01-31T02:15:25.578Z,928.55
2017-01-31T02:16:39.929Z,928.54
2017-01-31T02:17:54.316Z,928.47
2017-01-31T02:19:08.682Z,928.5
2017-01-31T02:20:23.074Z,928.47
2017-01-31T02:21:37.479Z,928.48
2017-01-31T02:22:51.858Z,928.49
2017-01-31T02:24:06.248Z,928.5
2017-01-31T02:25:20.637Z,928.51
2017-01-31T02:26:35.028Z,928.51
2017-01-31T02:27:49.564Z,928.48
2017-01-31T02:29:03.940Z,928.49
2017-01-31T02:30:17.671Z,928.47
2017-01-31T02:31:32.033Z,928.5
2017-01-31T02:32:46.399Z,928.53
2017-01-31T02:34:00.784Z,928.54
2017-01-31T02:35:15.194Z,928.56
2017-01-31T02:36:29.575Z,928.57
2017-01-31T02:37:43.924Z,928.51
2017-01-31T02:38:58.317Z,928.52
2017-01-31T02:40:12.042Z,928.54
2017-01-31T02:41:26.407Z,928.56
2017-01-31T02:42:40.772Z,928.56
2017-01-31T02:43:55.129Z,928.55
2017-01-31T02:45:09.466Z,928.55
2017-01-31T02:46:23.843Z,928.58
2017-01-31T02:47:38.240Z,928.56
2017-01-31T02:48:52.616Z,928.56
2017-01-31T02:50:06.985Z,928.56
2017-01-31T02:51:21.364Z,928.58
2017-01-31T02:52:35.739Z,928.57
2017-01-31T02:53:50.086Z,928.57
2017-01-31T02:55:04.448Z,928.58
2017-01-31T02:56:18.851Z,928.57
2017-01-31T02:57:33.233Z,928.58
2017-01-31T02:58:47.597Z,928.57
2017-01-31T03:00:01.992Z,928.55
2017-01-31T03:01:16.381Z,928.58
2017-01-31T03:02:30.799Z,928.56
2017-01-31T03:03:45.169Z,928.56
2017-01-31T03:04:59.518Z,928.5
2017-01-31T03:06:13.234Z,928.49
2017-01-31T03:07:27.579Z,928.44
2017-01-31T03:08:41.965Z,928.46
2017-01-31T03:09:56.323Z,928.4
2017-01-31T03:11:10.717Z,928.41
2017-01-31T03:12:25.118Z,928.37
2017-01-31T03:13:39.531Z,928.37
2017-01-31T03:14:53.864Z,928.32
2017-01-31T03:16:08.206Z,928.31
2017-01-31T03:17:21.952Z,928.32
2017-01-31T03:18:36.305Z,928.29
2017-01-31T03:19:50.662Z,928.28
2017-01-31T03:21:05.003Z,928.25
2017-01-31T03:22:18.725Z,928.29
2017-01-31T03:23:33.113Z,928.31
2017-01-31T03:24:46.852Z,928.31
2017-01-31T03:26:01.204Z,928.29
2017-01-31T03:27:15.597Z,928.29
2017-01-31T03:28:29.954Z,928.28
2017-01-31T03:29:43.689Z,928.23
2017-01-31T03:30:58.077Z,928.15
2017-01-31T03:32:11.798Z,928.08
2017-01-31T03:33:26.179Z,928.09
2017-01-31T03:34:40.561Z,928.01
2017-01-31T03:35:54.874Z,927.95
2017-01-31T03:37:08.573Z,927.96
2017-01-31T03:38:22.341Z,927.92
2017-01-31T03:39:36.741Z,927.94
2017-01-31T03:40:51.107Z,927.92
2017-01-31T03:42:05.453Z,927.9
2017-01-31T03:43:19.831Z,927.93
2017-01-31T03:44:34.215Z,927.95
2017-01-31T03:45:48.616Z,927.99
2017-01-31T03:47:02.414Z,928.01
2017-01-31T03:48:16.784Z,927.97
2017-01-31T03:49:31.102Z,927.96
2017-01-31T03:50:45.470Z,927.94
2017-01-31T03:51:59.872Z,927.9
2017-01-31T03:53:13.619Z,927.91
2017-01-31T03:54:27.981Z,927.95
2017-01-31T03:55:42.366Z,927.98
2017-01-31T03:56:56.727Z,928.04
2017-01-31T03:58:11.088Z,928.01
2017-01-31T03:59:25.493Z,928.02
2017-01-31T04:00:39.853Z,928
2017-01-31T04:01:54.179Z,927.89
2017-01-31T04:03:08.543Z,927.83
2017-01-31T04:04:22.927Z,927.75
2017-01-31T04:05:37.316Z,927.76
2017-01-31T04:06:51.718Z,927.75
2017-01-31T04:08:06.110Z,927.78
2017-01-31T04:09:20.496Z,927.71
2017-01-31T04:10:34.854Z,927.76
2017-01-31T04:11:49.209Z,927.78
2017-01-31T04:13:03.595Z,927.79
2017-01-31T04:14:17.975Z,927.76
2017-01-31T04:15:32.378Z,927.75
2017-01-31T04:16:46.742Z,927.73
2017-01-31T04:18:01.115Z,927.67
2017-01-31T04:19:14.850Z,927.68
2017-01-31T04:20:29.227Z,927.74
2017-01-31T04:21:43.594Z,927.69
2017-01-31T04:22:57.938Z,927.71
2017-01-31T04:24:11.641Z,927.7
2017-01-31T04:25:25.965Z,927.7
2017-01-31T04:26:40.337Z,927.69
2017-01-31T04:27:54.694Z,927.7
2017-01-31T04:29:09.115Z,927.7
2017-01-31T04:30:30.221Z,927.7
2017-01-31T04:31:44.600Z,927.7
2017-01-31T04:32:58.942Z,927.68
2017-01-31T04:34:12.662Z,927.73
2017-01-31T04:35:27.032Z,927.71
2017-01-31T04:36:41.386Z,927.71
2017-01-31T04:37:55.788Z,927.64
2017-01-31T04:39:09.514Z,927.67
2017-01-31T04:40:23.267Z,927.62
2017-01-31T04:41:37.608Z,927.56
2017-01-31T04:42:51.964Z,927.53
2017-01-31T04:44:06.332Z,927.43
2017-01-31T04:45:20.688Z,927.5
2017-01-31T04:46:35.060Z,927.4
2017-01-31T04:47:49.434Z,927.28
2017-01-31T04:49:03.801Z,927.37
2017-01-31T04:50:18.152Z,927.29
2017-01-31T04:51:32.491Z,927.3
2017-01-31T04:52:46.841Z,927.32
2017-01-31T04:54:01.273Z,927.33
2017-01-31T04:55:28.402Z,927.3
2017-01-31T04:56:42.761Z,927.41
2017-01-31T04:57:57.121Z,927.45
2017-01-31T04:59:11.495Z,927.45
2017-01-31T05:00:25.880Z,927.47
2017-01-31T05:01:40.234Z,927.45
2017-01-31T05:02:54.567Z,927.47
2017-01-31T05:04:08.953Z,927.41
2017-01-31T05:05:22.701Z,927.39
2017-01-31T05:06:37.067Z,927.34
2017-01-31T05:07:51.404Z,927.39
2017-01-31T05:09:05.762Z,927.36
2017-01-31T05:10:20.121Z,927.34
2017-01-31T05:11:34.498Z,927.36
2017-01-31T05:12:48.859Z,927.38
2017-01-31T05:14:03.205Z,927.33
2017-01-31T05:15:16.930Z,927.28
2017-01-31T05:16:31.320Z,927.3
2017-01-31T05:17:45.716Z,927.31
2017-01-31T05:19:00.088Z,927.34
2017-01-31T05:20:14.510Z,927.31
2017-01-31T05:21:28.908Z,927.33
2017-01-31T05:22:43.271Z,927.35
2017-01-31T05:23:57.632Z,927.36
2017-01-31T05:25:11.973Z,927.29
2017-01-31T05:26:26.350Z,927.46
2017-01-31T05:27:40.712Z,927.42
2017-01-31T05:28:55.106Z,927.43
2017-01-31T05:30:08.831Z,927.48
2017-01-31T05:31:23.241Z,927.44
2017-01-31T05:32:37.564Z,927.42
2017-01-31T05:33:51.896Z,927.33
2017-01-31T05:35:06.263Z,927.35
2017-01-31T05:36:20.648Z,927.37
2017-01-31T05:37:35.009Z,927.37
2017-01-31T05:38:49.386Z,927.36
2017-01-31T05:40:03.111Z,927.4
2017-01-31T05:41:16.807Z,927.41
2017-01-31T05:42:31.175Z,927.42
2017-01-31T05:43:45.536Z,927.43
2017-01-31T05:44:59.921Z,927.39
2017-01-31T05:46:14.321Z,927.4
2017-01-31T05:47:28.699Z,927.34
2017-01-31T05:48:43.035Z,927.33
2017-01-31T05:49:57.400Z,927.31
2017-01-31T05:51:11.099Z,927.3
2017-01-31T05:52:25.483Z,927.29
2017-01-31T05:53:39.895Z,927.24
2017-01-31T05:54:54.268Z,927.3
2017-01-31T05:56:08.637Z,927.27
2017-01-31T05:57:23.006Z,927.29
2017-01-31T05:58:37.390Z,927.31
2017-01-31T05:59:51.787Z,927.31
2017-01-31T06:01:06.123Z,927.25
2017-01-31T06:02:20.491Z,927.22
2017-01-31T06:03:34.906Z,927.22
2017-01-31T06:04:49.284Z,927.16
2017-01-31T06:06:03.697Z,927.19
2017-01-31T06:07:18.054Z,927.17
2017-01-31T06:08:32.445Z,927.19
2017-01-31T06:09:46.795Z,927.16
2017-01-31T06:11:01.207Z,927.19
2017-01-31T06:12:15.566Z,927.17
2017-01-31T06:13:29.918Z,927.17
2017-01-31T06:14:44.274Z,927.22
2017-01-31T06:15:58.635Z,927.19
2017-01-31T06:17:12.346Z,927.19
2017-01-31T06:18:26.740Z,927.21
2017-01-31T06:19:40.531Z,927.16
2017-01-31T06:20:54.926Z,927.15
2017-01-31T06:22:08.665Z,927.13
2017-01-31T06:23:22.397Z,927.15
2017-01-31T06:24:36.975Z,927.15
2017-01-31T06:25:51.350Z,927.11
2017-01-31T06:27:05.703Z,927.12
2017-01-31T06:28:20.088Z,927.11
2017-01-31T06:29:34.422Z,927.1
2017-01-31T06:30:48.767Z,927.14
2017-01-31T06:32:03.128Z,927.11
2017-01-31T06:33:17.517Z,927.11
2017-01-31T06:34:31.880Z,927.11
2017-01-31T06:35:46.237Z,927.15
2017-01-31T06:37:00.604Z,927.13
2017-01-31T06:38:15.041Z,927.13
2017-01-31T06:39:29.423Z,927.12
2017-01-31T06:40:43.851Z,927.07
2017-01-31T06:41:57.604Z,927.08
2017-01-31T06:43:11.315Z,927.09
2017-01-31T06:44:25.714Z,927.08
2017-01-31T06:45:40.050Z,927.07
2017-01-31T06:46:54.406Z,927.09
2017-01-31T06:48:08.753Z,927.07
2017-01-31T06:49:22.501Z,927.07
2017-01-31T06:50:36.896Z,927.09
2017-01-31T06:51:50.629Z,927.06
2017-01-31T06:53:05.006Z,927.05
2017-01-31T06:54:18.728Z,927.04
2017-01-31T06:55:33.145Z,927.01
2017-01-31T06:56:47.558Z,927
2017-01-31T06:58:01.913Z,927.04
2017-01-31T06:59:16.269Z,926.98
2017-01-31T07:00:30.611Z,927.03
2017-01-31T07:01:44.960Z,927.01
2017-01-31T07:02:59.338Z,927
2017-01-31T07:04:13.719Z,927.02
2017-01-31T07:05:28.122Z,927.04
2017-01-31T07:06:41.823Z,927.07
2017-01-31T07:07:56.174Z,927.1
2017-01-31T07:09:10.588Z,927.06
2017-01-31T07:10:24.955Z,927.06
2017-01-31T07:11:39.328Z,927.06
2017-01-31T07:12:53.705Z,927.1
2017-01-31T07:14:08.120Z,927.1
2017-01-31T07:15:22.511Z,927.14
2017-01-31T07:16:36.915Z,927.16
2017-01-31T07:17:51.275Z,927.16
2017-01-31T07:19:05.597Z,927.17
2017-01-31T07:20:19.933Z,927.2
2017-01-31T07:21:34.303Z,927.25
2017-01-31T07:22:48.005Z,927.23
2017-01-31T07:24:02.370Z,927.29
2017-01-31T07:25:15.453Z,927.3
2017-01-31T07:26:29.828Z,927.33
2017-01-31T07:27:44.200Z,927.33
2017-01-31T07:28:58.568Z,927.32
2017-01-31T07:30:12.927Z,927.34
2017-01-31T07:31:27.319Z,927.33
2017-01-31T07:32:41.692Z,927.3
2017-01-31T07:33:56.079Z,927.33
2017-01-31T07:35:10.445Z,927.31
2017-01-31T07:36:24.811Z,927.27
2017-01-31T07:37:39.166Z,927.23
2017-01-31T07:38:53.503Z,927.24
2017-01-31T07:40:07.862Z,927.18
2017-01-31T07:41:21.620Z,927.11
2017-01-31T07:42:36.030Z,927.05
2017-01-31T07:43:50.382Z,926.98
2017-01-31T07:45:04.736Z,926.96
2017-01-31T07:46:18.452Z,926.94
2017-01-31T07:47:32.818Z,926.86
2017-01-31T07:48:47.179Z,926.79
2017-01-31T07:50:01.527Z,926.71
2017-01-31T07:51:15.874Z,926.7
2017-01-31T07:52:29.836Z,926.67
2017-01-31T07:53:43.532Z,926.66
2017-01-31T07:54:57.913Z,926.58
2017-01-31T07:56:12.280Z,926.65
2017-01-31T07:57:26.691Z,926.64
2017-01-31T07:58:41.076Z,926.7
2017-01-31T07:59:55.448Z,926.68
2017-01-31T08:01:09.173Z,926.73
2017-01-31T08:02:22.929Z,926.68
2017-01-31T08:03:37.316Z,926.64
2017-01-31T08:04:51.691Z,926.68
2017-01-31T08:06:05.433Z,926.66
2017-01-31T08:07:19.868Z,926.81
2017-01-31T08:08:34.241Z,926.81
2017-01-31T08:09:48.015Z,926.93
2017-01-31T08:11:02.386Z,927.03
2017-01-31T08:12:16.738Z,927.12
2017-01-31T08:13:31.115Z,927.2
2017-01-31T08:14:44.830Z,927.24
2017-01-31T08:15:59.183Z,927.27
2017-01-31T08:17:12.915Z,927.27
2017-01-31T08:18:26.646Z,927.27
2017-01-31T08:19:40.396Z,927.27
2017-01-31T08:20:54.789Z,927.25
2017-01-31T08:22:08.511Z,927.28
2017-01-31T08:23:22.876Z,927.27
2017-01-31T08:24:36.590Z,927.28
2017-01-31T08:25:50.949Z,927.3
2017-01-31T08:27:04.670Z,927.37
2017-01-31T08:28:17.775Z,927.39
2017-01-31T08:29:32.115Z,927.45
2017-01-31T08:30:45.830Z,927.44
2017-01-31T08:31:59.569Z,927.43
2017-01-31T08:33:13.975Z,927.48
2017-01-31T08:34:28.367Z,927.51
2017-01-31T08:35:42.767Z,927.5
2017-01-31T08:36:57.095Z,927.54
2017-01-31T08:38:10.800Z,927.53
2017-01-31T08:39:25.144Z,927.56
2017-01-31T08:40:38.857Z,927.58
2017-01-31T08:41:53.262Z,927.56
2017-01-31T08:43:07.626Z,927.58
2017-01-31T08:44:21.336Z,927.55
2017-01-31T08:45:35.681Z,927.54
2017-01-31T08:46:50.048Z,927.51
2017-01-31T08:48:03.798Z,927.5
2017-01-31T08:49:18.179Z,927.54
2017-01-31T08:50:32.530Z,927.49
2017-01-31T08:51:46.231Z,927.51
2017-01-31T08:53:00.589Z,927.45
2017-01-31T08:54:14.960Z,927.44
2017-01-31T08:55:28.714Z,927.42
2017-01-31T08:56:43.088Z,927.39
2017-01-31T08:57:57.440Z,927.4
2017-01-31T08:59:11.173Z,927.41
2017-01-31T09:00:24.901Z,927.43
2017-01-31T09:01:39.271Z,927.45
2017-01-31T09:02:53.709Z,927.48
2017-01-31T09:04:08.094Z,927.48
2017-01-31T09:05:22.434Z,927.5
2017-01-31T09:06:36.803Z,927.5
2017-01-31T09:07:51.164Z,927.47
2017-01-31T09:09:04.875Z,927.49
2017-01-31T09:10:18.590Z,927.47
2017-01-31T09:11:32.983Z,927.47
2017-01-31T09:12:47.360Z,927.48
2017-01-31T09:14:01.717Z,927.49
2017-01-31T09:15:16.147Z,927.51
2017-01-31T09:16:30.532Z,927.55
2017-01-31T09:17:44.255Z,927.55
2017-01-31T09:18:58.640Z,927.58
2017-01-31T09:20:12.355Z,927.56
2017-01-31T09:21:26.765Z,927.59
2017-01-31T09:22:41.120Z,927.57
2017-01-31T09:23:55.477Z,927.63
2017-01-31T09:25:08.558Z,927.62
2017-01-31T09:26:22.982Z,927.65
2017-01-31T09:27:37.343Z,927.65
2017-01-31T09:28:51.717Z,927.7
2017-01-31T09:30:06.141Z,927.68
2017-01-31T09:31:20.498Z,927.67
2017-01-31T09:32:34.870Z,927.69
2017-01-31T09:33:49.208Z,927.69
2017-01-31T09:35:03.603Z,927.71
2017-01-31T09:36:17.341Z,927.74
2017-01-31T09:37:31.745Z,927.74
2017-01-31T09:38:46.137Z,927.78
2017-01-31T09:40:00.493Z,927.77
2017-01-31T09:41:14.881Z,927.82
2017-01-31T09:42:29.235Z,927.79
2017-01-31T09:43:43.612Z,927.85
2017-01-31T09:44:57.364Z,927.78
2017-01-31T09:46:11.730Z,927.85
2017-01-31T09:47:25.500Z,927.84
2017-01-31T09:48:39.892Z,927.86
2017-01-31T09:49:53.624Z,927.89
2017-01-31T09:51:07.346Z,927.94
2017-01-31T09:52:21.713Z,927.96
2017-01-31T09:53:36.081Z,927.97
2017-01-31T09:54:50.484Z,927.95
2017-01-31T09:56:04.888Z,927.98
2017-01-31T09:57:18.616Z,928.03
2017-01-31T09:58:33.043Z,928
2017-01-31T09:59:47.436Z,928.04
2017-01-31T10:01:01.901Z,928.09
2017-01-31T10:02:15.682Z,928.12
2017-01-31T10:03:30.083Z,928.07
2017-01-31T10:04:44.494Z,928.18
2017-01-31T10:05:58.825Z,928.17
2017-01-31T10:07:12.570Z,928.17
2017-01-31T10:08:26.962Z,928.17
2017-01-31T10:09:41.294Z,928.23
2017-01-31T10:10:55.030Z,928.17
2017-01-31T10:12:08.787Z,928.24
2017-01-31T10:13:23.155Z,928.29
2017-01-31T10:14:37.516Z,928.32
2017-01-31T10:15:51.919Z,928.3
2017-01-31T10:17:06.317Z,928.32
2017-01-31T10:18:20.674Z,928.23
2017-01-31T10:19:35.042Z,928.28
2017-01-31T10:20:49.429Z,928.22
2017-01-31T10:22:03.769Z,928.16
2017-01-31T10:23:17.459Z,928.18
2017-01-31T10:24:31.820Z,928.25
2017-01-31T10:25:46.230Z,928.27
2017-01-31T10:27:00.589Z,928.24
2017-01-31T10:28:14.971Z,928.3
2017-01-31T10:29:29.392Z,928.32
2017-01-31T10:30:43.764Z,928.31
2017-01-31T10:31:58.160Z,928.2
2017-01-31T10:33:11.895Z,928.3
2017-01-31T10:34:26.285Z,928.36
2017-01-31T10:35:40.665Z,928.21
2017-01-31T10:36:55.018Z,928.33
2017-01-31T10:38:08.724Z,928.27
2017-01-31T10:39:22.480Z,928.26
2017-01-31T10:40:36.859Z,928.32
2017-01-31T10:41:50.631Z,928.34
2017-01-31T10:43:05.056Z,928.37
2017-01-31T10:44:18.117Z,928.27
2017-01-31T10:45:32.466Z,928.28
2017-01-31T10:46:46.205Z,928.33
2017-01-31T10:48:00.586Z,928.35
2017-01-31T10:49:15.040Z,928.37
2017-01-31T10:50:29.495Z,928.37
2017-01-31T10:51:43.871Z,928.38
2017-01-31T10:52:57.599Z,928.39
2017-01-31T10:54:11.932Z,928.44
2017-01-31T10:55:26.315Z,928.43
2017-01-31T10:56:40.061Z,928.47
2017-01-31T10:57:54.397Z,928.41
2017-01-31T10:59:08.128Z,928.45
2017-01-31T11:00:21.928Z,928.41
2017-01-31T11:01:36.311Z,928.44
2017-01-31T11:02:50.673Z,928.45
2017-01-31T11:04:04.418Z,928.44
2017-01-31T11:05:18.785Z,928.39
2017-01-31T11:06:32.548Z,928.38
2017-01-31T11:07:46.932Z,928.41
2017-01-31T11:09:01.297Z,928.42
2017-01-31T11:10:15.720Z,928.36
2017-01-31T11:11:30.114Z,928.33
2017-01-31T11:12:44.513Z,928.37
2017-01-31T11:13:58.878Z,928.25
2017-01-31T11:15:12.654Z,928.27
2017-01-31T11:16:27.020Z,928.28
2017-01-31T11:17:41.456Z,928.24
2017-01-31T11:18:55.815Z,928.27
2017-01-31T11:20:08.906Z,928.25
2017-01-31T11:21:23.338Z,928.23
2017-01-31T11:22:37.033Z,928.31
2017-01-31T11:23:51.405Z,928.33
2017-01-31T11:25:05.817Z,928.32
2017-01-31T11:26:20.181Z,928.36
2017-01-31T11:27:33.941Z,928.38
2017-01-31T11:28:48.370Z,928.33
2017-01-31T11:30:02.792Z,928.29
2017-01-31T11:31:17.162Z,928.28
2017-01-31T11:32:31.552Z,928.3
2017-01-31T11:33:46.139Z,928.31
2017-01-31T11:35:00.556Z,928.4
2017-01-31T11:36:14.933Z,928.32
2017-01-31T11:37:28.673Z,928.23
2017-01-31T11:38:42.381Z,928.29
2017-01-31T11:39:56.143Z,928.27
2017-01-31T11:41:10.498Z,928.29
2017-01-31T11:42:24.874Z,928.29
2017-01-31T11:43:39.347Z,928.3
2017-01-31T11:44:54.403Z,928.33
2017-01-31T11:46:08.182Z,928.19
2017-01-31T11:47:22.608Z,928.24
2017-01-31T11:48:36.988Z,928.26
2017-01-31T11:49:51.354Z,928.31
2017-01-31T11:51:05.716Z,928.29
2017-01-31T11:52:20.094Z,928.3
2017-01-31T11:53:33.850Z,928.34
2017-01-31T11:54:48.240Z,928.25
2017-01-31T11:56:01.979Z,928.23
2017-01-31T11:57:15.723Z,928.3
2017-01-31T11:58:30.167Z,928.3
2017-01-31T11:59:43.869Z,928.28
2017-01-31T12:00:57.635Z,928.36
2017-01-31T12:02:12.032Z,928.33
2017-01-31T12:03:26.436Z,928.3
2017-01-31T12:04:40.880Z,928.28
2017-01-31T12:05:55.252Z,928.35
2017-01-31T12:07:09.664Z,928.28
2017-01-31T12:08:23.399Z,928.34
2017-01-31T12:09:37.762Z,928.24
2017-01-31T12:10:51.459Z,928.34
2017-01-31T12:12:05.179Z,928.35
2017-01-31T12:13:18.892Z,928.35
2017-01-31T12:14:33.778Z,928.28
2017-01-31T12:15:48.148Z,928.32
2017-01-31T12:17:02.512Z,928.27
2017-01-31T12:18:16.933Z,928.35
2017-01-31T12:19:30.660Z,928.24
2017-01-31T12:20:45.059Z,928.28
2017-01-31T12:21:58.162Z,928.27
2017-01-31T12:23:12.681Z,928.37
2017-01-31T12:24:27.096Z,928.3
2017-01-31T12:25:41.464Z,928.32
2017-01-31T12:26:55.832Z,928.36
2017-01-31T12:28:10.248Z,928.32
2017-01-31T12:29:24.653Z,928.32
2017-01-31T12:30:39.043Z,928.4
2017-01-31T12:31:53.443Z,928.37
2017-01-31T12:33:07.786Z,928.4
2017-01-31T12:34:22.153Z,928.34
2017-01-31T12:35:36.538Z,928.4
2017-01-31T12:36:50.903Z,928.39
2017-01-31T12:38:05.277Z,928.43
2017-01-31T12:39:19.647Z,928.41
2017-01-31T12:40:34.005Z,928.37
2017-01-31T12:41:48.396Z,928.4
2017-01-31T12:43:02.765Z,928.35
2017-01-31T12:44:17.148Z,928.38
2017-01-31T12:45:31.597Z,928.38
2017-01-31T12:46:45.954Z,928.38
2017-01-31T12:48:00.355Z,928.35
2017-01-31T12:49:14.093Z,928.34
2017-01-31T12:50:29.191Z,928.3
2017-01-31T12:51:43.588Z,928.3
2017-01-31T12:52:57.972Z,928.3
2017-01-31T12:54:12.325Z,928.31
2017-01-31T12:55:26.697Z,928.28
2017-01-31T12:56:41.043Z,928.25
2017-01-31T12:57:55.443Z,928.21
2017-01-31T12:59:09.812Z,928.22
2017-01-31T13:00:24.181Z,928.2
2017-01-31T13:01:37.972Z,928.22
2017-01-31T13:02:52.345Z,928.23
2017-01-31T13:04:06.986Z,928.25
2017-01-31T13:05:21.416Z,928.23
2017-01-31T13:06:35.816Z,928.25
2017-01-31T13:07:50.205Z,928.24
2017-01-31T13:09:04.596Z,928.2
2017-01-31T13:10:19.020Z,928.2
2017-01-31T13:11:32.738Z,928.22
2017-01-31T13:12:47.140Z,928.16
2017-01-31T13:14:01.541Z,928.17
2017-01-31T13:15:14.663Z,928.16
2017-01-31T13:16:28.537Z,928.09
2017-01-31T13:17:42.932Z,928.13
2017-01-31T13:18:57.319Z,928.11
2017-01-31T13:20:11.059Z,928.1
2017-01-31T13:21:24.805Z,928.08
2017-01-31T13:22:38.524Z,928.07
2017-01-31T13:23:52.935Z,928.05
2017-01-31T13:25:07.336Z,927.99
2017-01-31T13:26:21.726Z,928.02
2017-01-31T13:27:36.170Z,928.02
2017-01-31T13:28:49.886Z,927.96
2017-01-31T13:30:03.675Z,927.99
2017-01-31T13:31:18.041Z,927.97
2017-01-31T13:32:31.794Z,928.02
2017-01-31T13:33:45.533Z,927.95
2017-01-31T13:34:59.913Z,927.98
2017-01-31T13:36:13.666Z,927.98
2017-01-31T13:37:28.073Z,927.89
2017-01-31T13:38:42.467Z,927.88
2017-01-31T13:39:56.895Z,927.99
2017-01-31T13:41:10.644Z,927.94
2017-01-31T13:42:25.017Z,927.91
2017-01-31T13:43:39.411Z,927.97
2017-01-31T13:44:54.781Z,927.87
2017-01-31T13:46:08.514Z,927.89
2017-01-31T13:47:21.623Z,927.9
2017-01-31T13:48:36.007Z,927.89
2017-01-31T13:49:50.412Z,927.91
2017-01-31T13:51:04.808Z,927.83
2017-01-31T13:52:18.548Z,927.86
2017-01-31T13:53:32.907Z,927.8
2017-01-31T13:54:47.304Z,927.78
2017-01-31T13:56:01.723Z,927.8
2017-01-31T13:57:16.085Z,927.81
2017-01-31T13:58:30.452Z,927.82
2017-01-31T13:59:44.862Z,927.72
2017-01-31T14:00:59.233Z,927.79
2017-01-31T14:02:13.612Z,927.75
2017-01-31T14:03:27.380Z,927.72
2017-01-31T14:04:41.109Z,927.72
2017-01-31T14:05:55.542Z,927.72
2017-01-31T14:07:09.977Z,927.69
2017-01-31T14:08:24.359Z,927.66
2017-01-31T14:09:38.157Z,927.71
2017-01-31T14:10:52.555Z,927.65
2017-01-31T14:12:06.437Z,927.67
2017-01-31T14:13:20.234Z,927.67
2017-01-31T14:14:34.663Z,927.64
2017-01-31T14:15:49.064Z,927.62
2017-01-31T14:17:03.452Z,927.59
2017-01-31T14:18:19.662Z,927.62
2017-01-31T14:19:34.031Z,927.59
2017-01-31T14:20:48.431Z,927.54
2017-01-31T14:22:01.534Z,927.59
2017-01-31T14:23:15.262Z,927.58
2017-01-31T14:24:29.700Z,927.51
2017-01-31T14:25:42.783Z,927.57
2017-01-31T14:26:57.116Z,927.54
2017-01-31T14:28:10.839Z,927.44
2017-01-31T14:29:24.576Z,927.47
2017-01-31T14:30:38.328Z,927.52
2017-01-31T14:31:52.033Z,927.48
2017-01-31T14:33:05.755Z,927.5
2017-01-31T14:34:19.454Z,927.48
2017-01-31T14:35:33.187Z,927.46
2017-01-31T14:36:46.314Z,927.5
2017-01-31T14:38:00.049Z,927.47
2017-01-31T14:39:13.134Z,927.45
2017-01-31T14:40:26.841Z,927.43
2017-01-31T14:41:40.565Z,927.46
2017-01-31T14:42:53.712Z,927.46
2017-01-31T14:44:07.453Z,927.47
2017-01-31T14:45:21.134Z,927.41
2017-01-31T14:46:34.484Z,927.44
2017-01-31T14:47:48.180Z,927.34
2017-01-31T14:49:01.857Z,927.32
2017-01-31T14:50:15.548Z,927.33
2017-01-31T14:51:29.308Z,927.36
2017-01-31T14:52:43.007Z,927.36
2017-01-31T14:53:56.692Z,927.31
2017-01-31T14:55:09.809Z,927.36
2017-01-31T14:56:23.530Z,927.33
2017-01-31T14:57:37.209Z,927.33
2017-01-31T14:58:51.413Z,927.32
2017-01-31T15:00:05.309Z,927.27
2017-01-31T15:01:19.063Z,927.28
2017-01-31T15:02:32.165Z,927.28
2017-01-31T15:03:45.861Z,927.22
2017-01-31T15:04:59.564Z,927.27
2017-01-31T15:06:12.698Z,927.24
2017-01-31T15:07:26.922Z,927.28
2017-01-31T15:08:40.664Z,927.25
2017-01-31T15:09:54.377Z,927.27
2017-01-31T15:11:08.092Z,927.21
2017-01-31T15:12:21.174Z,927.25
2017-01-31T15:13:34.858Z,927.3
2017-01-31T15:14:48.633Z,927.23
2017-01-31T15:16:03.079Z,927.25
2017-01-31T15:17:18.249Z,927.26
2017-01-31T15:18:32.629Z,927.26
2017-01-31T15:19:46.376Z,927.3
2017-01-31T15:21:00.149Z,927.3
2017-01-31T15:22:13.882Z,927.25
2017-01-31T15:23:28.308Z,927.2
2017-01-31T15:24:44.032Z,927.17
2017-01-31T15:25:57.793Z,927.18
2017-01-31T15:27:11.522Z,927.22
2017-01-31T15:28:25.969Z,927.19
2017-01-31T15:29:40.345Z,927.1
2017-01-31T15:30:54.740Z,927.04
2017-01-31T15:32:09.116Z,927.03
2017-01-31T15:33:22.894Z,927.05
2017-01-31T15:34:37.297Z,927.01
2017-01-31T15:35:52.215Z,927
2017-01-31T15:37:05.333Z,927.04